sensor_id;sensor_type;location;lat;lon;timestamp;P1;durP1;ratioP1;P2;durP2;ratioP2
42754;SDS011;28407;51.830;5.684;2022-09-21T00:00:42;4.18;;;2.60;;
42754;SDS011;28407;51.830;5.684;2022-09-21T00:02:44;3.33;;;2.40;;
42754;SDS011;28407;51.830;5.684;2022-09-21T00:04:44;3.00;;;2.30;;
42754;SDS011;28407;51.830;5.684;2022-09-21T00:06:45;5.57;;;2.50;;
42754;SDS011;28407;51.830;5.684;2022-09-21T00:08:46;3.05;;;2.15;;
42754;SDS011;28407;51.830;5.684;2022-09-21T00:10:50;5.30;;;2.40;;
42754;SDS011;28407;51.830;5.684;2022-09-21T00:12:51;3.03;;;2.20;;
42754;SDS011;28407;51.830;5.684;2022-09-21T00:14:52;3.80;;;2.50;;
42754;SDS011;28407;51.830;5.684;2022-09-21T00:16:53;3.03;;;2.47;;
42754;SDS011;28407;51.830;5.684;2022-09-21T00:18:53;3.22;;;2.22;;
42754;SDS011;28407;51.830;5.684;2022-09-21T00:20:54;2.95;;;2.25;;
42754;SDS011;28407;51.830;5.684;2022-09-21T00:22:55;3.80;;;3.10;;
42754;SDS011;28407;51.830;5.684;2022-09-21T00:24:55;2.95;;;2.33;;
42754;SDS011;28407;51.830;5.684;2022-09-21T00:26:56;2.72;;;2.35;;
42754;SDS011;28407;51.830;5.684;2022-09-21T00:28:58;2.60;;;2.40;;
42754;SDS011;28407;51.830;5.684;2022-09-21T00:31:00;3.05;;;2.30;;
42754;SDS011;28407;51.830;5.684;2022-09-21T00:33:02;3.00;;;2.50;;
42754;SDS011;28407;51.830;5.684;2022-09-21T00:35:03;2.42;;;2.22;;
42754;SDS011;28407;51.830;5.684;2022-09-21T00:37:06;3.42;;;2.70;;
42754;SDS011;28407;51.830;5.684;2022-09-21T00:39:08;2.92;;;2.40;;
42754;SDS011;28407;51.830;5.684;2022-09-21T00:41:09;4.28;;;2.40;;
42754;SDS011;28407;51.830;5.684;2022-09-21T00:43:13;2.88;;;2.42;;
42754;SDS011;28407;51.830;5.684;2022-09-21T00:45:14;3.60;;;2.13;;
42754;SDS011;28407;51.830;5.684;2022-09-21T00:49:42;3.15;;;2.50;;
42754;SDS011;28407;51.830;5.684;2022-09-21T00:51:45;4.28;;;2.65;;
42754;SDS011;28407;51.830;5.684;2022-09-21T00:53:46;2.42;;;2.22;;
42754;SDS011;28407;51.830;5.684;2022-09-21T00:55:51;3.15;;;2.50;;
42754;SDS011;28407;51.830;5.684;2022-09-21T00:57:55;3.17;;;2.88;;
42754;SDS011;28407;51.830;5.684;2022-09-21T01:00:02;2.58;;;2.25;;
42754;SDS011;28407;51.830;5.684;2022-09-21T01:02:07;3.95;;;2.85;;
42754;SDS011;28407;51.830;5.684;2022-09-21T01:04:08;3.45;;;3.10;;
42754;SDS011;28407;51.830;5.684;2022-09-21T01:06:11;3.38;;;2.40;;
42754;SDS011;28407;51.830;5.684;2022-09-21T01:08:12;2.85;;;2.55;;
42754;SDS011;28407;51.830;5.684;2022-09-21T01:10:15;2.65;;;2.13;;
42754;SDS011;28407;51.830;5.684;2022-09-21T01:21:16;3.55;;;2.50;;
42754;SDS011;28407;51.830;5.684;2022-09-21T01:30:12;5.68;;;2.58;;
42754;SDS011;28407;51.830;5.684;2022-09-21T01:32:17;5.82;;;2.45;;
42754;SDS011;28407;51.830;5.684;2022-09-21T01:34:47;3.20;;;2.50;;
42754;SDS011;28407;51.830;5.684;2022-09-21T01:37:12;2.38;;;2.17;;
42754;SDS011;28407;51.830;5.684;2022-09-21T01:39:19;5.43;;;3.28;;
42754;SDS011;28407;51.830;5.684;2022-09-21T01:41:22;3.33;;;2.50;;
42754;SDS011;28407;51.830;5.684;2022-09-21T01:43:32;5.45;;;2.67;;
42754;SDS011;28407;51.830;5.684;2022-09-21T01:45:38;2.78;;;2.38;;
42754;SDS011;28407;51.830;5.684;2022-09-21T01:47:44;2.78;;;2.40;;
42754;SDS011;28407;51.830;5.684;2022-09-21T01:49:48;3.90;;;2.50;;
42754;SDS011;28407;51.830;5.684;2022-09-21T01:51:54;4.63;;;2.90;;
42754;SDS011;28407;51.830;5.684;2022-09-21T01:54:01;3.13;;;2.67;;
42754;SDS011;28407;51.830;5.684;2022-09-21T01:56:21;2.78;;;2.40;;
42754;SDS011;28407;51.830;5.684;2022-09-21T01:58:30;3.13;;;2.65;;
42754;SDS011;28407;51.830;5.684;2022-09-21T02:00:35;2.42;;;2.22;;
42754;SDS011;28407;51.830;5.684;2022-09-21T02:02:43;3.53;;;2.47;;
42754;SDS011;28407;51.830;5.684;2022-09-21T02:04:54;3.33;;;3.03;;
42754;SDS011;28407;51.830;5.684;2022-09-21T02:06:55;4.72;;;2.50;;
42754;SDS011;28407;51.830;5.684;2022-09-21T02:08:56;2.95;;;2.65;;
42754;SDS011;28407;51.830;5.684;2022-09-21T02:10:58;5.32;;;2.67;;
42754;SDS011;28407;51.830;5.684;2022-09-21T02:13:04;2.83;;;2.50;;
42754;SDS011;28407;51.830;5.684;2022-09-21T02:15:07;2.90;;;2.38;;
42754;SDS011;28407;51.830;5.684;2022-09-21T02:17:14;4.10;;;2.93;;
42754;SDS011;28407;51.830;5.684;2022-09-21T02:19:35;4.07;;;3.05;;
42754;SDS011;28407;51.830;5.684;2022-09-21T02:21:54;7.15;;;2.45;;
42754;SDS011;28407;51.830;5.684;2022-09-21T02:24:11;2.83;;;2.50;;
42754;SDS011;28407;51.830;5.684;2022-09-21T02:26:33;3.20;;;2.70;;
42754;SDS011;28407;51.830;5.684;2022-09-21T02:28:42;3.05;;;2.30;;
42754;SDS011;28407;51.830;5.684;2022-09-21T02:30:54;6.40;;;2.85;;
42754;SDS011;28407;51.830;5.684;2022-09-21T02:37:23;3.47;;;2.88;;
42754;SDS011;28407;51.830;5.684;2022-09-21T02:39:33;4.70;;;2.60;;
42754;SDS011;28407;51.830;5.684;2022-09-21T02:42:00;3.15;;;2.85;;
42754;SDS011;28407;51.830;5.684;2022-09-21T02:44:08;2.95;;;2.40;;
42754;SDS011;28407;51.830;5.684;2022-09-21T02:46:16;4.10;;;2.55;;
42754;SDS011;28407;51.830;5.684;2022-09-21T02:48:25;3.55;;;3.13;;
42754;SDS011;28407;51.830;5.684;2022-09-21T02:50:39;4.00;;;2.58;;
42754;SDS011;28407;51.830;5.684;2022-09-21T02:52:45;5.18;;;2.95;;
42754;SDS011;28407;51.830;5.684;2022-09-21T02:54:49;3.28;;;2.97;;
42754;SDS011;28407;51.830;5.684;2022-09-21T02:56:52;3.25;;;2.63;;
42754;SDS011;28407;51.830;5.684;2022-09-21T02:58:54;3.50;;;2.90;;
42754;SDS011;28407;51.830;5.684;2022-09-21T03:00:58;3.72;;;2.90;;
42754;SDS011;28407;51.830;5.684;2022-09-21T03:02:59;2.83;;;2.53;;
42754;SDS011;28407;51.830;5.684;2022-09-21T03:04:59;2.80;;;2.40;;
42754;SDS011;28407;51.830;5.684;2022-09-21T03:07:00;3.20;;;2.50;;
42754;SDS011;28407;51.830;5.684;2022-09-21T03:09:01;3.63;;;2.95;;
42754;SDS011;28407;51.830;5.684;2022-09-21T03:11:02;2.53;;;2.33;;
42754;SDS011;28407;51.830;5.684;2022-09-21T03:13:03;3.95;;;2.83;;
42754;SDS011;28407;51.830;5.684;2022-09-21T03:15:03;2.95;;;2.50;;
42754;SDS011;28407;51.830;5.684;2022-09-21T03:17:04;3.50;;;2.65;;
42754;SDS011;28407;51.830;5.684;2022-09-21T03:19:05;2.40;;;2.20;;
42754;SDS011;28407;51.830;5.684;2022-09-21T03:21:06;3.05;;;2.35;;
42754;SDS011;28407;51.830;5.684;2022-09-21T03:23:07;2.50;;;2.30;;
42754;SDS011;28407;51.830;5.684;2022-09-21T03:25:08;3.05;;;2.17;;
42754;SDS011;28407;51.830;5.684;2022-09-21T03:27:11;3.25;;;2.40;;
42754;SDS011;28407;51.830;5.684;2022-09-21T03:29:22;3.70;;;2.40;;
42754;SDS011;28407;51.830;5.684;2022-09-21T03:31:22;3.25;;;2.53;;
42754;SDS011;28407;51.830;5.684;2022-09-21T03:33:23;3.20;;;2.55;;
42754;SDS011;28407;51.830;5.684;2022-09-21T03:35:24;4.85;;;3.53;;
42754;SDS011;28407;51.830;5.684;2022-09-21T03:37:25;2.80;;;2.60;;
42754;SDS011;28407;51.830;5.684;2022-09-21T03:39:26;2.67;;;2.38;;
42754;SDS011;28407;51.830;5.684;2022-09-21T03:41:26;3.38;;;3.08;;
42754;SDS011;28407;51.830;5.684;2022-09-21T03:43:27;3.47;;;2.50;;
42754;SDS011;28407;51.830;5.684;2022-09-21T03:45:28;3.85;;;2.42;;
42754;SDS011;28407;51.830;5.684;2022-09-21T03:47:29;2.90;;;2.60;;
42754;SDS011;28407;51.830;5.684;2022-09-21T03:49:30;4.40;;;2.53;;
42754;SDS011;28407;51.830;5.684;2022-09-21T03:51:31;3.42;;;2.67;;
42754;SDS011;28407;51.830;5.684;2022-09-21T03:53:31;2.83;;;2.58;;
42754;SDS011;28407;51.830;5.684;2022-09-21T03:55:32;3.10;;;2.60;;
42754;SDS011;28407;51.830;5.684;2022-09-21T03:57:34;3.17;;;2.63;;
42754;SDS011;28407;51.830;5.684;2022-09-21T03:59:35;2.95;;;2.65;;
42754;SDS011;28407;51.830;5.684;2022-09-21T04:01:36;2.80;;;2.53;;
42754;SDS011;28407;51.830;5.684;2022-09-21T04:03:37;4.15;;;3.38;;
42754;SDS011;28407;51.830;5.684;2022-09-21T04:05:37;3.92;;;2.45;;
42754;SDS011;28407;51.830;5.684;2022-09-21T04:07:38;2.63;;;2.42;;
42754;SDS011;28407;51.830;5.684;2022-09-21T04:09:39;4.25;;;2.72;;
42754;SDS011;28407;51.830;5.684;2022-09-21T04:11:40;3.03;;;2.72;;
42754;SDS011;28407;51.830;5.684;2022-09-21T04:13:42;3.20;;;2.53;;
42754;SDS011;28407;51.830;5.684;2022-09-21T04:15:42;2.90;;;2.60;;
42754;SDS011;28407;51.830;5.684;2022-09-21T04:17:43;4.38;;;2.22;;
42754;SDS011;28407;51.830;5.684;2022-09-21T04:19:45;3.30;;;2.72;;
42754;SDS011;28407;51.830;5.684;2022-09-21T04:21:46;3.05;;;2.75;;
42754;SDS011;28407;51.830;5.684;2022-09-21T04:23:50;2.55;;;2.35;;
42754;SDS011;28407;51.830;5.684;2022-09-21T04:25:50;2.60;;;2.40;;
42754;SDS011;28407;51.830;5.684;2022-09-21T04:27:53;3.20;;;2.90;;
42754;SDS011;28407;51.830;5.684;2022-09-21T04:29:54;2.80;;;2.60;;
42754;SDS011;28407;51.830;5.684;2022-09-21T04:31:55;3.55;;;2.85;;
42754;SDS011;28407;51.830;5.684;2022-09-21T04:33:57;2.60;;;2.40;;
42754;SDS011;28407;51.830;5.684;2022-09-21T04:35:58;3.40;;;2.40;;
42754;SDS011;28407;51.830;5.684;2022-09-21T04:37:58;3.65;;;2.58;;
42754;SDS011;28407;51.830;5.684;2022-09-21T04:39:59;2.90;;;2.53;;
42754;SDS011;28407;51.830;5.684;2022-09-21T04:42:00;3.97;;;2.70;;
42754;SDS011;28407;51.830;5.684;2022-09-21T04:44:01;3.92;;;2.72;;
42754;SDS011;28407;51.830;5.684;2022-09-21T04:46:08;3.83;;;2.60;;
42754;SDS011;28407;51.830;5.684;2022-09-21T04:48:10;3.50;;;2.67;;
42754;SDS011;28407;51.830;5.684;2022-09-21T04:50:11;2.88;;;2.50;;
42754;SDS011;28407;51.830;5.684;2022-09-21T04:52:11;3.80;;;2.70;;
42754;SDS011;28407;51.830;5.684;2022-09-21T04:54:12;2.67;;;2.47;;
42754;SDS011;28407;51.830;5.684;2022-09-21T04:56:13;2.92;;;2.63;;
42754;SDS011;28407;51.830;5.684;2022-09-21T04:58:14;2.95;;;2.65;;
42754;SDS011;28407;51.830;5.684;2022-09-21T05:00:15;3.72;;;2.58;;
42754;SDS011;28407;51.830;5.684;2022-09-21T05:02:16;5.07;;;2.80;;
42754;SDS011;28407;51.830;5.684;2022-09-21T05:04:17;3.40;;;3.10;;
42754;SDS011;28407;51.830;5.684;2022-09-21T05:06:17;3.35;;;2.97;;
42754;SDS011;28407;51.830;5.684;2022-09-21T05:08:18;3.20;;;2.80;;
42754;SDS011;28407;51.830;5.684;2022-09-21T05:10:42;3.28;;;2.90;;
42754;SDS011;28407;51.830;5.684;2022-09-21T05:12:43;3.40;;;3.10;;
42754;SDS011;28407;51.830;5.684;2022-09-21T05:14:44;3.83;;;3.05;;
42754;SDS011;28407;51.830;5.684;2022-09-21T05:16:44;3.70;;;3.40;;
42754;SDS011;28407;51.830;5.684;2022-09-21T05:18:51;4.00;;;3.30;;
42754;SDS011;28407;51.830;5.684;2022-09-21T05:20:57;3.63;;;2.63;;
42754;SDS011;28407;51.830;5.684;2022-09-21T05:22:59;4.25;;;2.78;;
42754;SDS011;28407;51.830;5.684;2022-09-21T05:25:01;3.92;;;3.00;;
42754;SDS011;28407;51.830;5.684;2022-09-21T05:27:02;3.40;;;2.90;;
42754;SDS011;28407;51.830;5.684;2022-09-21T05:29:02;3.55;;;2.92;;
42754;SDS011;28407;51.830;5.684;2022-09-21T05:31:10;3.88;;;3.28;;
42754;SDS011;28407;51.830;5.684;2022-09-21T05:33:12;3.63;;;2.50;;
42754;SDS011;28407;51.830;5.684;2022-09-21T05:35:23;4.03;;;3.22;;
42754;SDS011;28407;51.830;5.684;2022-09-21T05:37:42;3.50;;;2.95;;
42754;SDS011;28407;51.830;5.684;2022-09-21T05:39:47;3.20;;;2.90;;
42754;SDS011;28407;51.830;5.684;2022-09-21T05:41:48;3.28;;;2.92;;
42754;SDS011;28407;51.830;5.684;2022-09-21T05:43:48;3.42;;;2.83;;
42754;SDS011;28407;51.830;5.684;2022-09-21T05:45:51;3.15;;;2.85;;
42754;SDS011;28407;51.830;5.684;2022-09-21T05:48:18;3.30;;;2.97;;
42754;SDS011;28407;51.830;5.684;2022-09-21T05:57:04;3.78;;;3.10;;
42754;SDS011;28407;51.830;5.684;2022-09-21T06:01:37;3.40;;;3.03;;
42754;SDS011;28407;51.830;5.684;2022-09-21T06:03:57;3.05;;;2.70;;
42754;SDS011;28407;51.830;5.684;2022-09-21T06:05:59;3.08;;;2.78;;
42754;SDS011;28407;51.830;5.684;2022-09-21T06:07:59;3.20;;;2.90;;
42754;SDS011;28407;51.830;5.684;2022-09-21T06:10:00;3.05;;;2.65;;
42754;SDS011;28407;51.830;5.684;2022-09-21T06:12:00;2.90;;;2.67;;
42754;SDS011;28407;51.830;5.684;2022-09-21T06:14:01;3.45;;;2.83;;
42754;SDS011;28407;51.830;5.684;2022-09-21T06:16:02;3.47;;;3.17;;
42754;SDS011;28407;51.830;5.684;2022-09-21T06:18:03;3.75;;;3.03;;
42754;SDS011;28407;51.830;5.684;2022-09-21T06:20:05;3.25;;;2.90;;
42754;SDS011;28407;51.830;5.684;2022-09-21T06:22:06;2.90;;;2.60;;
42754;SDS011;28407;51.830;5.684;2022-09-21T06:24:07;3.00;;;2.70;;
42754;SDS011;28407;51.830;5.684;2022-09-21T06:26:07;3.45;;;2.78;;
42754;SDS011;28407;51.830;5.684;2022-09-21T06:28:09;4.10;;;3.28;;
42754;SDS011;28407;51.830;5.684;2022-09-21T06:30:11;3.80;;;2.90;;
42754;SDS011;28407;51.830;5.684;2022-09-21T06:32:12;4.60;;;3.40;;
42754;SDS011;28407;51.830;5.684;2022-09-21T06:34:12;4.88;;;2.70;;
42754;SDS011;28407;51.830;5.684;2022-09-21T06:36:13;2.60;;;2.40;;
42754;SDS011;28407;51.830;5.684;2022-09-21T06:38:14;3.88;;;3.30;;
42754;SDS011;28407;51.830;5.684;2022-09-21T06:40:14;3.00;;;2.70;;
42754;SDS011;28407;51.830;5.684;2022-09-21T06:42:15;3.05;;;2.75;;
42754;SDS011;28407;51.830;5.684;2022-09-21T06:44:15;3.03;;;2.72;;
42754;SDS011;28407;51.830;5.684;2022-09-21T06:46:16;2.85;;;2.55;;
42754;SDS011;28407;51.830;5.684;2022-09-21T06:48:17;2.80;;;2.60;;
42754;SDS011;28407;51.830;5.684;2022-09-21T06:50:17;2.83;;;2.53;;
42754;SDS011;28407;51.830;5.684;2022-09-21T06:52:18;2.45;;;2.25;;
42754;SDS011;28407;51.830;5.684;2022-09-21T06:54:19;3.95;;;2.55;;
42754;SDS011;28407;51.830;5.684;2022-09-21T06:56:20;2.53;;;2.33;;
42754;SDS011;28407;51.830;5.684;2022-09-21T06:58:20;3.15;;;2.70;;
42754;SDS011;28407;51.830;5.684;2022-09-21T07:00:21;2.75;;;2.50;;
42754;SDS011;28407;51.830;5.684;2022-09-21T07:02:22;2.33;;;2.13;;
42754;SDS011;28407;51.830;5.684;2022-09-21T07:04:23;2.70;;;2.50;;
42754;SDS011;28407;51.830;5.684;2022-09-21T07:06:23;2.42;;;2.22;;
42754;SDS011;28407;51.830;5.684;2022-09-21T07:08:24;2.45;;;1.98;;
42754;SDS011;28407;51.830;5.684;2022-09-21T07:10:26;5.65;;;3.72;;
42754;SDS011;28407;51.830;5.684;2022-09-21T07:12:27;2.58;;;2.33;;
42754;SDS011;28407;51.830;5.684;2022-09-21T07:14:28;3.08;;;2.40;;
42754;SDS011;28407;51.830;5.684;2022-09-21T07:16:29;3.40;;;2.55;;
42754;SDS011;28407;51.830;5.684;2022-09-21T07:18:30;2.85;;;2.40;;
42754;SDS011;28407;51.830;5.684;2022-09-21T07:20:30;2.40;;;2.20;;
42754;SDS011;28407;51.830;5.684;2022-09-21T07:22:31;2.58;;;2.38;;
42754;SDS011;28407;51.830;5.684;2022-09-21T07:24:32;2.80;;;2.58;;
42754;SDS011;28407;51.830;5.684;2022-09-21T07:26:32;3.25;;;2.92;;
42754;SDS011;28407;51.830;5.684;2022-09-21T07:28:33;7.15;;;3.20;;
42754;SDS011;28407;51.830;5.684;2022-09-21T07:30:35;2.97;;;2.70;;
42754;SDS011;28407;51.830;5.684;2022-09-21T07:32:37;2.72;;;2.53;;
42754;SDS011;28407;51.830;5.684;2022-09-21T07:34:37;2.90;;;2.40;;
42754;SDS011;28407;51.830;5.684;2022-09-21T07:36:38;3.85;;;2.40;;
42754;SDS011;28407;51.830;5.684;2022-09-21T07:38:39;2.85;;;2.30;;
42754;SDS011;28407;51.830;5.684;2022-09-21T07:40:41;3.25;;;2.13;;
42754;SDS011;28407;51.830;5.684;2022-09-21T07:42:42;4.20;;;2.40;;
42754;SDS011;28407;51.830;5.684;2022-09-21T07:44:43;2.65;;;2.13;;
42754;SDS011;28407;51.830;5.684;2022-09-21T07:46:47;2.85;;;2.65;;
42754;SDS011;28407;51.830;5.684;2022-09-21T07:48:48;2.97;;;2.30;;
42754;SDS011;28407;51.830;5.684;2022-09-21T07:50:48;2.53;;;2.30;;
42754;SDS011;28407;51.830;5.684;2022-09-21T07:52:49;2.75;;;2.40;;
42754;SDS011;28407;51.830;5.684;2022-09-21T07:54:49;2.72;;;2.28;;
42754;SDS011;28407;51.830;5.684;2022-09-21T07:56:50;3.05;;;2.50;;
42754;SDS011;28407;51.830;5.684;2022-09-21T07:59:09;2.08;;;1.92;;
42754;SDS011;28407;51.830;5.684;2022-09-21T08:01:10;3.97;;;2.30;;
42754;SDS011;28407;51.830;5.684;2022-09-21T08:03:11;2.72;;;1.95;;
42754;SDS011;28407;51.830;5.684;2022-09-21T08:05:12;2.58;;;2.38;;
42754;SDS011;28407;51.830;5.684;2022-09-21T08:07:13;2.45;;;2.15;;
42754;SDS011;28407;51.830;5.684;2022-09-21T08:09:13;2.30;;;2.10;;
42754;SDS011;28407;51.830;5.684;2022-09-21T08:11:15;2.35;;;1.80;;
42754;SDS011;28407;51.830;5.684;2022-09-21T08:13:16;2.95;;;1.83;;
42754;SDS011;28407;51.830;5.684;2022-09-21T08:15:17;2.00;;;1.90;;
42754;SDS011;28407;51.830;5.684;2022-09-21T08:17:18;6.28;;;2.88;;
42754;SDS011;28407;51.830;5.684;2022-09-21T08:19:19;2.85;;;2.20;;
42754;SDS011;28407;51.830;5.684;2022-09-21T08:21:20;2.00;;;1.90;;
42754;SDS011;28407;51.830;5.684;2022-09-21T08:23:20;2.92;;;2.10;;
42754;SDS011;28407;51.830;5.684;2022-09-21T08:25:21;2.75;;;1.70;;
42754;SDS011;28407;51.830;5.684;2022-09-21T08:27:22;2.80;;;1.80;;
42754;SDS011;28407;51.830;5.684;2022-09-21T08:29:24;5.03;;;2.40;;
42754;SDS011;28407;51.830;5.684;2022-09-21T08:31:25;2.88;;;2.58;;
42754;SDS011;28407;51.830;5.684;2022-09-21T08:33:26;6.63;;;1.75;;
42754;SDS011;28407;51.830;5.684;2022-09-21T08:35:27;1.77;;;1.67;;
42754;SDS011;28407;51.830;5.684;2022-09-21T08:37:27;4.28;;;1.70;;
42754;SDS011;28407;51.830;5.684;2022-09-21T08:39:28;1.95;;;1.75;;
42754;SDS011;28407;51.830;5.684;2022-09-21T08:43:37;3.58;;;2.15;;
42754;SDS011;28407;51.830;5.684;2022-09-21T08:45:42;1.80;;;1.60;;
42754;SDS011;28407;51.830;5.684;2022-09-21T08:47:55;2.15;;;1.80;;
42754;SDS011;28407;51.830;5.684;2022-09-21T08:49:58;2.30;;;1.60;;
42754;SDS011;28407;51.830;5.684;2022-09-21T08:52:03;2.47;;;1.42;;
42754;SDS011;28407;51.830;5.684;2022-09-21T08:54:09;1.90;;;1.80;;
42754;SDS011;28407;51.830;5.684;2022-09-21T08:56:18;1.63;;;1.50;;
42754;SDS011;28407;51.830;5.684;2022-09-21T08:58:21;3.50;;;1.60;;
42754;SDS011;28407;51.830;5.684;2022-09-21T09:00:23;1.73;;;1.40;;
42754;SDS011;28407;51.830;5.684;2022-09-21T09:07:39;1.77;;;1.50;;
42754;SDS011;28407;51.830;5.684;2022-09-21T09:09:53;2.90;;;1.80;;
42754;SDS011;28407;51.830;5.684;2022-09-21T09:12:32;2.55;;;1.70;;
42754;SDS011;28407;51.830;5.684;2022-09-21T09:19:39;2.58;;;1.58;;
42754;SDS011;28407;51.830;5.684;2022-09-21T09:21:45;2.85;;;1.58;;
42754;SDS011;28407;51.830;5.684;2022-09-21T09:23:47;1.75;;;1.45;;
42754;SDS011;28407;51.830;5.684;2022-09-21T09:26:05;1.42;;;1.15;;
42754;SDS011;28407;51.830;5.684;2022-09-21T09:28:14;1.60;;;1.50;;
42754;SDS011;28407;51.830;5.684;2022-09-21T09:30:34;1.48;;;1.38;;
42754;SDS011;28407;51.830;5.684;2022-09-21T09:32:40;2.50;;;1.40;;
42754;SDS011;28407;51.830;5.684;2022-09-21T09:35:04;4.97;;;2.25;;
42754;SDS011;28407;51.830;5.684;2022-09-21T09:37:23;1.67;;;1.33;;
42754;SDS011;28407;51.830;5.684;2022-09-21T09:39:29;2.33;;;1.45;;
42754;SDS011;28407;51.830;5.684;2022-09-21T09:41:38;4.20;;;1.50;;
42754;SDS011;28407;51.830;5.684;2022-09-21T09:51:12;1.42;;;1.33;;
42754;SDS011;28407;51.830;5.684;2022-09-21T09:53:14;3.63;;;1.50;;
42754;SDS011;28407;51.830;5.684;2022-09-21T09:55:18;2.60;;;2.40;;
42754;SDS011;28407;51.830;5.684;2022-09-21T09:57:25;2.35;;;1.40;;
42754;SDS011;28407;51.830;5.684;2022-09-21T09:59:38;2.53;;;1.30;;
42754;SDS011;28407;51.830;5.684;2022-09-21T10:01:44;1.85;;;1.30;;
42754;SDS011;28407;51.830;5.684;2022-09-21T10:03:56;2.65;;;1.75;;
42754;SDS011;28407;51.830;5.684;2022-09-21T10:06:05;3.97;;;1.52;;
42754;SDS011;28407;51.830;5.684;2022-09-21T10:10:40;1.58;;;1.20;;
42754;SDS011;28407;51.830;5.684;2022-09-21T10:12:43;2.40;;;1.20;;
42754;SDS011;28407;51.830;5.684;2022-09-21T10:14:49;1.50;;;1.35;;
42754;SDS011;28407;51.830;5.684;2022-09-21T10:16:51;2.00;;;1.38;;
42754;SDS011;28407;51.830;5.684;2022-09-21T10:18:55;2.17;;;1.30;;
42754;SDS011;28407;51.830;5.684;2022-09-21T10:21:02;1.70;;;1.20;;
42754;SDS011;28407;51.830;5.684;2022-09-21T10:23:05;1.40;;;1.17;;
42754;SDS011;28407;51.830;5.684;2022-09-21T10:25:13;1.88;;;1.20;;
42754;SDS011;28407;51.830;5.684;2022-09-21T10:27:18;1.60;;;1.25;;
42754;SDS011;28407;51.830;5.684;2022-09-21T10:31:25;1.30;;;1.20;;
42754;SDS011;28407;51.830;5.684;2022-09-21T10:33:30;2.65;;;1.20;;
42754;SDS011;28407;51.830;5.684;2022-09-21T10:35:30;1.95;;;1.27;;
42754;SDS011;28407;51.830;5.684;2022-09-21T10:37:33;2.58;;;1.15;;
42754;SDS011;28407;51.830;5.684;2022-09-21T10:39:37;1.73;;;0.95;;
42754;SDS011;28407;51.830;5.684;2022-09-21T10:41:48;1.33;;;1.20;;
42754;SDS011;28407;51.830;5.684;2022-09-21T10:43:58;2.15;;;1.20;;
42754;SDS011;28407;51.830;5.684;2022-09-21T10:45:59;1.70;;;1.10;;
42754;SDS011;28407;51.830;5.684;2022-09-21T10:48:13;1.52;;;1.10;;
42754;SDS011;28407;51.830;5.684;2022-09-21T10:50:21;1.58;;;1.00;;
42754;SDS011;28407;51.830;5.684;2022-09-21T10:52:24;2.10;;;1.20;;
42754;SDS011;28407;51.830;5.684;2022-09-21T10:54:34;2.08;;;1.05;;
42754;SDS011;28407;51.830;5.684;2022-09-21T10:56:35;1.10;;;1.00;;
42754;SDS011;28407;51.830;5.684;2022-09-21T10:58:36;2.22;;;1.10;;
42754;SDS011;28407;51.830;5.684;2022-09-21T11:02:43;2.05;;;1.10;;
42754;SDS011;28407;51.830;5.684;2022-09-21T11:04:46;1.40;;;1.05;;
42754;SDS011;28407;51.830;5.684;2022-09-21T11:06:51;1.35;;;0.95;;
42754;SDS011;28407;51.830;5.684;2022-09-21T11:08:59;1.10;;;1.00;;
42754;SDS011;28407;51.830;5.684;2022-09-21T11:15:46;2.67;;;1.20;;
42754;SDS011;28407;51.830;5.684;2022-09-21T11:18:00;1.20;;;1.00;;
42754;SDS011;28407;51.830;5.684;2022-09-21T11:22:41;1.13;;;0.90;;
42754;SDS011;28407;51.830;5.684;2022-09-21T11:26:52;1.10;;;0.90;;
42754;SDS011;28407;51.830;5.684;2022-09-21T11:29:01;1.27;;;0.90;;
42754;SDS011;28407;51.830;5.684;2022-09-21T11:38:21;0.95;;;0.80;;
42754;SDS011;28407;51.830;5.684;2022-09-21T11:44:51;1.63;;;0.90;;
42754;SDS011;28407;51.830;5.684;2022-09-21T11:47:01;6.07;;;1.00;;
42754;SDS011;28407;51.830;5.684;2022-09-21T11:49:18;1.25;;;0.80;;
42754;SDS011;28407;51.830;5.684;2022-09-21T11:54:04;0.80;;;0.75;;
42754;SDS011;28407;51.830;5.684;2022-09-21T11:56:28;1.00;;;0.70;;
42754;SDS011;28407;51.830;5.684;2022-09-21T11:58:48;2.05;;;0.80;;
42754;SDS011;28407;51.830;5.684;2022-09-21T12:08:31;2.20;;;0.70;;
42754;SDS011;28407;51.830;5.684;2022-09-21T12:13:18;0.73;;;0.60;;
42754;SDS011;28407;51.830;5.684;2022-09-21T12:15:31;0.80;;;0.60;;
42754;SDS011;28407;51.830;5.684;2022-09-21T12:19:58;1.33;;;0.60;;
42754;SDS011;28407;51.830;5.684;2022-09-21T12:22:18;1.20;;;0.60;;
42754;SDS011;28407;51.830;5.684;2022-09-21T12:24:28;2.05;;;0.60;;
42754;SDS011;28407;51.830;5.684;2022-09-21T12:26:38;0.57;;;0.57;;
42754;SDS011;28407;51.830;5.684;2022-09-21T12:28:43;1.42;;;0.60;;
42754;SDS011;28407;51.830;5.684;2022-09-21T12:30:48;2.03;;;0.60;;
42754;SDS011;28407;51.830;5.684;2022-09-21T12:32:55;1.33;;;0.60;;
42754;SDS011;28407;51.830;5.684;2022-09-21T12:35:14;2.38;;;1.02;;
42754;SDS011;28407;51.830;5.684;2022-09-21T12:37:37;1.50;;;0.60;;
42754;SDS011;28407;51.830;5.684;2022-09-21T12:40:02;1.35;;;0.68;;
42754;SDS011;28407;51.830;5.684;2022-09-21T12:42:16;2.05;;;0.60;;
42754;SDS011;28407;51.830;5.684;2022-09-21T12:44:42;2.75;;;0.85;;
42754;SDS011;28407;51.830;5.684;2022-09-21T12:46:56;2.10;;;0.60;;
42754;SDS011;28407;51.830;5.684;2022-09-21T12:49:13;1.45;;;0.60;;
42754;SDS011;28407;51.830;5.684;2022-09-21T12:53:24;0.77;;;0.70;;
42754;SDS011;28407;51.830;5.684;2022-09-21T12:55:37;1.58;;;0.93;;
42754;SDS011;28407;51.830;5.684;2022-09-21T13:00:21;2.17;;;0.60;;
42754;SDS011;28407;51.830;5.684;2022-09-21T13:02:31;3.17;;;0.60;;
42754;SDS011;28407;51.830;5.684;2022-09-21T13:09:17;0.47;;;0.47;;
42754;SDS011;28407;51.830;5.684;2022-09-21T13:11:20;0.55;;;0.50;;
42754;SDS011;28407;51.830;5.684;2022-09-21T13:13:30;0.40;;;0.40;;
42754;SDS011;28407;51.830;5.684;2022-09-21T13:15:52;1.10;;;0.50;;
42754;SDS011;28407;51.830;5.684;2022-09-21T13:18:00;1.30;;;0.50;;
42754;SDS011;28407;51.830;5.684;2022-09-21T13:20:14;2.20;;;0.57;;
42754;SDS011;28407;51.830;5.684;2022-09-21T13:24:25;1.27;;;0.52;;
42754;SDS011;28407;51.830;5.684;2022-09-21T13:37:56;1.50;;;0.52;;
42754;SDS011;28407;51.830;5.684;2022-09-21T13:44:39;0.40;;;0.40;;
42754;SDS011;28407;51.830;5.684;2022-09-21T13:48:42;0.70;;;0.43;;
42754;SDS011;28407;51.830;5.684;2022-09-21T13:50:42;1.10;;;0.40;;
42754;SDS011;28407;51.830;5.684;2022-09-21T13:52:45;1.30;;;0.40;;
42754;SDS011;28407;51.830;5.684;2022-09-21T13:54:52;1.45;;;0.43;;
42754;SDS011;28407;51.830;5.684;2022-09-21T13:59:20;1.13;;;0.50;;
42754;SDS011;28407;51.830;5.684;2022-09-21T14:01:24;1.13;;;0.40;;
42754;SDS011;28407;51.830;5.684;2022-09-21T14:03:35;0.75;;;0.40;;
42754;SDS011;28407;51.830;5.684;2022-09-21T14:05:43;1.98;;;1.30;;
42754;SDS011;28407;51.830;5.684;2022-09-21T14:07:46;0.90;;;0.40;;
42754;SDS011;28407;51.830;5.684;2022-09-21T14:10:15;2.15;;;0.50;;
42754;SDS011;28407;51.830;5.684;2022-09-21T14:12:19;1.30;;;0.30;;
42754;SDS011;28407;51.830;5.684;2022-09-21T14:18:34;0.30;;;0.30;;
42754;SDS011;28407;51.830;5.684;2022-09-21T14:20:36;0.80;;;0.35;;
42754;SDS011;28407;51.830;5.684;2022-09-21T14:22:37;0.77;;;0.30;;
42754;SDS011;28407;51.830;5.684;2022-09-21T14:24:42;0.95;;;0.43;;
42754;SDS011;28407;51.830;5.684;2022-09-21T14:26:49;1.70;;;0.55;;
42754;SDS011;28407;51.830;5.684;2022-09-21T14:29:07;0.88;;;0.32;;
42754;SDS011;28407;51.830;5.684;2022-09-21T14:31:21;0.98;;;0.30;;
42754;SDS011;28407;51.830;5.684;2022-09-21T14:33:28;1.10;;;0.40;;
42754;SDS011;28407;51.830;5.684;2022-09-21T14:35:39;1.20;;;0.30;;
42754;SDS011;28407;51.830;5.684;2022-09-21T14:37:47;1.60;;;0.40;;
42754;SDS011;28407;51.830;5.684;2022-09-21T14:39:59;0.93;;;0.30;;
42754;SDS011;28407;51.830;5.684;2022-09-21T14:42:10;0.80;;;0.30;;
42754;SDS011;28407;51.830;5.684;2022-09-21T14:44:19;1.08;;;0.40;;